Anton Chico, New Mexico
Current Conditions -  °F | °C
As of 5:53 AM on Saturday 01 Nov 2014 (Local Time) from KLVS Reporting Station
Clear Clear  
Wind Chill: -2°   Ceiling: Unl
Heat Index:   Visibility: 10mi
Dew Point: -2°   Wind: 14mph
Humidity: 73%   Direction: 170°S
Pressure: 30.23"   Gusts: NA
Location:  35.2°N, 105.14°W
Report Text: KLVS 011153Z AUTO 17012KT 10SM CLR 03/M02 A3023 RMK AO2 SLP192 T00281017 10061 20028 57010
Loading
Personal Weather Stations






























Interactive Weather Map
Tropical Storm Tracking
New forecast layout! Learn more

10-Day Weather Forecast

Advertisements
Track Severe Weather on mobile